sensor_id;sensor_type;location;lat;lon;timestamp;P1;durP1;ratioP1;P2;durP2;ratioP2
22205;SDS011;11272;50.104;8.754;2022-12-18T00:00:46;31.70;;;11.20;;
22205;SDS011;11272;50.104;8.754;2022-12-18T00:03:13;33.17;;;12.10;;
22205;SDS011;11272;50.104;8.754;2022-12-18T00:05:50;38.80;;;14.10;;
22205;SDS011;11272;50.104;8.754;2022-12-18T00:08:17;36.80;;;12.83;;
22205;SDS011;11272;50.104;8.754;2022-12-18T00:10:43;28.37;;;10.50;;
22205;SDS011;11272;50.104;8.754;2022-12-18T00:13:09;35.10;;;11.23;;
22205;SDS011;11272;50.104;8.754;2022-12-18T00:15:36;36.03;;;11.83;;
22205;SDS011;11272;50.104;8.754;2022-12-18T00:18:03;24.80;;;10.43;;
22205;SDS011;11272;50.104;8.754;2022-12-18T00:20:29;31.97;;;11.27;;
22205;SDS011;11272;50.104;8.754;2022-12-18T00:22:55;32.73;;;11.00;;
22205;SDS011;11272;50.104;8.754;2022-12-18T00:25:21;32.70;;;11.70;;
22205;SDS011;11272;50.104;8.754;2022-12-18T00:27:47;37.33;;;12.50;;
22205;SDS011;11272;50.104;8.754;2022-12-18T00:30:13;34.93;;;12.07;;
22205;SDS011;11272;50.104;8.754;2022-12-18T00:32:39;34.23;;;10.93;;
22205;SDS011;11272;50.104;8.754;2022-12-18T00:35:06;33.30;;;10.93;;
22205;SDS011;11272;50.104;8.754;2022-12-18T00:37:33;31.90;;;11.50;;
22205;SDS011;11272;50.104;8.754;2022-12-18T00:39:59;25.70;;;9.50;;
22205;SDS011;11272;50.104;8.754;2022-12-18T00:42:25;28.93;;;9.30;;
22205;SDS011;11272;50.104;8.754;2022-12-18T00:45:10;26.70;;;10.10;;
22205;SDS011;11272;50.104;8.754;2022-12-18T00:47:36;33.47;;;11.73;;
22205;SDS011;11272;50.104;8.754;2022-12-18T00:50:02;32.23;;;10.10;;
22205;SDS011;11272;50.104;8.754;2022-12-18T00:52:28;27.33;;;10.80;;
22205;SDS011;11272;50.104;8.754;2022-12-18T00:54:54;39.13;;;12.10;;
22205;SDS011;11272;50.104;8.754;2022-12-18T00:57:20;37.37;;;11.30;;
22205;SDS011;11272;50.104;8.754;2022-12-18T00:59:45;30.37;;;11.40;;
22205;SDS011;11272;50.104;8.754;2022-12-18T01:02:11;25.30;;;10.50;;
22205;SDS011;11272;50.104;8.754;2022-12-18T01:04:36;38.97;;;12.83;;
22205;SDS011;11272;50.104;8.754;2022-12-18T01:07:02;29.73;;;12.33;;
22205;SDS011;11272;50.104;8.754;2022-12-18T01:09:28;31.17;;;10.63;;
22205;SDS011;11272;50.104;8.754;2022-12-18T01:11:54;30.93;;;11.10;;
22205;SDS011;11272;50.104;8.754;2022-12-18T01:14:20;36.77;;;11.50;;
22205;SDS011;11272;50.104;8.754;2022-12-18T01:16:46;34.07;;;11.50;;
22205;SDS011;11272;50.104;8.754;2022-12-18T01:19:11;34.60;;;10.90;;
22205;SDS011;11272;50.104;8.754;2022-12-18T01:21:37;32.67;;;10.93;;
22205;SDS011;11272;50.104;8.754;2022-12-18T01:24:03;30.80;;;11.50;;
22205;SDS011;11272;50.104;8.754;2022-12-18T01:26:29;30.53;;;10.73;;
22205;SDS011;11272;50.104;8.754;2022-12-18T01:28:55;27.50;;;8.83;;
22205;SDS011;11272;50.104;8.754;2022-12-18T01:31:23;36.37;;;10.67;;
22205;SDS011;11272;50.104;8.754;2022-12-18T01:33:54;27.73;;;9.87;;
22205;SDS011;11272;50.104;8.754;2022-12-18T01:36:24;31.67;;;9.87;;
22205;SDS011;11272;50.104;8.754;2022-12-18T01:38:53;29.07;;;10.07;;
22205;SDS011;11272;50.104;8.754;2022-12-18T01:41:21;25.60;;;8.57;;
22205;SDS011;11272;50.104;8.754;2022-12-18T01:43:56;28.27;;;10.40;;
22205;SDS011;11272;50.104;8.754;2022-12-18T01:46:23;25.97;;;9.57;;
22205;SDS011;11272;50.104;8.754;2022-12-18T01:48:53;25.13;;;9.17;;
22205;SDS011;11272;50.104;8.754;2022-12-18T01:51:23;27.33;;;10.00;;
22205;SDS011;11272;50.104;8.754;2022-12-18T01:53:49;26.63;;;9.57;;
22205;SDS011;11272;50.104;8.754;2022-12-18T01:56:16;27.70;;;9.73;;
22205;SDS011;11272;50.104;8.754;2022-12-18T01:58:58;26.77;;;9.73;;
22205;SDS011;11272;50.104;8.754;2022-12-18T02:01:28;28.20;;;9.10;;
22205;SDS011;11272;50.104;8.754;2022-12-18T02:03:55;29.43;;;9.40;;
22205;SDS011;11272;50.104;8.754;2022-12-18T02:06:42;28.97;;;10.20;;
22205;SDS011;11272;50.104;8.754;2022-12-18T02:09:11;30.50;;;8.97;;
22205;SDS011;11272;50.104;8.754;2022-12-18T02:11:47;27.37;;;9.83;;
22205;SDS011;11272;50.104;8.754;2022-12-18T02:14:36;27.90;;;9.57;;
22205;SDS011;11272;50.104;8.754;2022-12-18T02:17:18;23.57;;;9.30;;
22205;SDS011;11272;50.104;8.754;2022-12-18T02:25:01;24.97;;;8.77;;
22205;SDS011;11272;50.104;8.754;2022-12-18T02:27:33;28.47;;;8.67;;
22205;SDS011;11272;50.104;8.754;2022-12-18T02:30:01;27.47;;;8.23;;
22205;SDS011;11272;50.104;8.754;2022-12-18T02:32:31;25.20;;;8.53;;
22205;SDS011;11272;50.104;8.754;2022-12-18T02:35:02;30.53;;;8.97;;
22205;SDS011;11272;50.104;8.754;2022-12-18T02:37:31;25.97;;;9.13;;
22205;SDS011;11272;50.104;8.754;2022-12-18T02:40:02;29.57;;;7.90;;
22205;SDS011;11272;50.104;8.754;2022-12-18T02:42:31;28.43;;;9.03;;
22205;SDS011;11272;50.104;8.754;2022-12-18T02:44:58;24.20;;;8.97;;
22205;SDS011;11272;50.104;8.754;2022-12-18T02:47:28;22.83;;;9.60;;
22205;SDS011;11272;50.104;8.754;2022-12-18T02:57:56;22.60;;;8.73;;
22205;SDS011;11272;50.104;8.754;2022-12-18T03:03:14;25.63;;;9.37;;
22205;SDS011;11272;50.104;8.754;2022-12-18T03:05:53;25.40;;;8.43;;
22205;SDS011;11272;50.104;8.754;2022-12-18T03:08:28;25.47;;;9.63;;
22205;SDS011;11272;50.104;8.754;2022-12-18T03:11:07;24.63;;;9.00;;
22205;SDS011;11272;50.104;8.754;2022-12-18T03:13:37;23.77;;;8.03;;
22205;SDS011;11272;50.104;8.754;2022-12-18T03:16:25;28.03;;;10.23;;
22205;SDS011;11272;50.104;8.754;2022-12-18T03:18:59;27.23;;;9.37;;
22205;SDS011;11272;50.104;8.754;2022-12-18T03:21:36;24.23;;;9.20;;
22205;SDS011;11272;50.104;8.754;2022-12-18T03:24:08;27.30;;;7.63;;
22205;SDS011;11272;50.104;8.754;2022-12-18T03:26:36;27.67;;;8.70;;
22205;SDS011;11272;50.104;8.754;2022-12-18T03:29:10;21.67;;;8.40;;
22205;SDS011;11272;50.104;8.754;2022-12-18T03:31:41;21.13;;;8.50;;
22205;SDS011;11272;50.104;8.754;2022-12-18T03:34:13;19.80;;;8.10;;
22205;SDS011;11272;50.104;8.754;2022-12-18T03:36:45;26.07;;;9.03;;
22205;SDS011;11272;50.104;8.754;2022-12-18T03:39:12;29.17;;;8.60;;
22205;SDS011;11272;50.104;8.754;2022-12-18T03:41:47;17.77;;;8.30;;
22205;SDS011;11272;50.104;8.754;2022-12-18T03:44:42;22.70;;;9.13;;
22205;SDS011;11272;50.104;8.754;2022-12-18T03:47:14;20.23;;;7.87;;
22205;SDS011;11272;50.104;8.754;2022-12-18T03:52:53;25.23;;;9.60;;
22205;SDS011;11272;50.104;8.754;2022-12-18T03:55:24;17.30;;;7.07;;
22205;SDS011;11272;50.104;8.754;2022-12-18T03:57:57;20.70;;;9.20;;
22205;SDS011;11272;50.104;8.754;2022-12-18T04:00:29;18.50;;;7.40;;
22205;SDS011;11272;50.104;8.754;2022-12-18T04:03:04;26.23;;;8.90;;
22205;SDS011;11272;50.104;8.754;2022-12-18T04:05:38;23.67;;;8.40;;
22205;SDS011;11272;50.104;8.754;2022-12-18T04:08:08;24.93;;;7.90;;
22205;SDS011;11272;50.104;8.754;2022-12-18T04:10:37;21.30;;;8.23;;
22205;SDS011;11272;50.104;8.754;2022-12-18T04:13:03;23.77;;;8.97;;
22205;SDS011;11272;50.104;8.754;2022-12-18T04:15:29;28.83;;;10.40;;
22205;SDS011;11272;50.104;8.754;2022-12-18T04:17:58;23.80;;;7.80;;
22205;SDS011;11272;50.104;8.754;2022-12-18T04:20:30;24.83;;;7.93;;
22205;SDS011;11272;50.104;8.754;2022-12-18T04:22:57;19.90;;;7.00;;
22205;SDS011;11272;50.104;8.754;2022-12-18T04:25:23;22.53;;;7.43;;
22205;SDS011;11272;50.104;8.754;2022-12-18T04:27:59;30.33;;;8.83;;
22205;SDS011;11272;50.104;8.754;2022-12-18T04:30:25;23.77;;;7.90;;
22205;SDS011;11272;50.104;8.754;2022-12-18T04:32:51;26.40;;;8.47;;
22205;SDS011;11272;50.104;8.754;2022-12-18T04:35:16;22.37;;;8.60;;
22205;SDS011;11272;50.104;8.754;2022-12-18T04:37:44;22.00;;;7.87;;
22205;SDS011;11272;50.104;8.754;2022-12-18T04:40:10;26.00;;;8.43;;
22205;SDS011;11272;50.104;8.754;2022-12-18T04:42:40;33.53;;;10.03;;
22205;SDS011;11272;50.104;8.754;2022-12-18T04:45:06;27.10;;;8.37;;
22205;SDS011;11272;50.104;8.754;2022-12-18T04:47:33;28.30;;;9.07;;
22205;SDS011;11272;50.104;8.754;2022-12-18T04:49:58;26.87;;;8.63;;
22205;SDS011;11272;50.104;8.754;2022-12-18T04:52:24;20.50;;;7.87;;
22205;SDS011;11272;50.104;8.754;2022-12-18T04:54:50;22.23;;;6.97;;
22205;SDS011;11272;50.104;8.754;2022-12-18T04:57:15;25.27;;;9.10;;
22205;SDS011;11272;50.104;8.754;2022-12-18T04:59:43;19.57;;;8.27;;
22205;SDS011;11272;50.104;8.754;2022-12-18T05:02:09;22.60;;;8.33;;
22205;SDS011;11272;50.104;8.754;2022-12-18T05:04:35;31.50;;;10.13;;
22205;SDS011;11272;50.104;8.754;2022-12-18T05:07:01;25.57;;;8.17;;
22205;SDS011;11272;50.104;8.754;2022-12-18T05:09:27;21.03;;;8.07;;
22205;SDS011;11272;50.104;8.754;2022-12-18T05:11:53;23.67;;;8.43;;
22205;SDS011;11272;50.104;8.754;2022-12-18T05:14:18;31.40;;;9.20;;
22205;SDS011;11272;50.104;8.754;2022-12-18T05:16:44;21.50;;;8.57;;
22205;SDS011;11272;50.104;8.754;2022-12-18T05:19:10;29.30;;;10.67;;
22205;SDS011;11272;50.104;8.754;2022-12-18T05:21:36;26.37;;;8.73;;
22205;SDS011;11272;50.104;8.754;2022-12-18T05:24:01;32.40;;;9.47;;
22205;SDS011;11272;50.104;8.754;2022-12-18T05:26:27;34.37;;;10.00;;
22205;SDS011;11272;50.104;8.754;2022-12-18T05:28:53;25.37;;;9.77;;
22205;SDS011;11272;50.104;8.754;2022-12-18T05:31:21;24.37;;;9.07;;
22205;SDS011;11272;50.104;8.754;2022-12-18T05:33:49;25.63;;;8.87;;
22205;SDS011;11272;50.104;8.754;2022-12-18T05:36:14;25.10;;;8.67;;
22205;SDS011;11272;50.104;8.754;2022-12-18T05:38:40;22.33;;;7.93;;
22205;SDS011;11272;50.104;8.754;2022-12-18T05:41:06;23.17;;;9.60;;
22205;SDS011;11272;50.104;8.754;2022-12-18T05:43:33;28.77;;;9.30;;
22205;SDS011;11272;50.104;8.754;2022-12-18T05:46:04;23.80;;;8.63;;
22205;SDS011;11272;50.104;8.754;2022-12-18T05:48:31;25.23;;;9.30;;
22205;SDS011;11272;50.104;8.754;2022-12-18T05:51:02;24.67;;;9.23;;
22205;SDS011;11272;50.104;8.754;2022-12-18T05:53:32;20.50;;;8.73;;
22205;SDS011;11272;50.104;8.754;2022-12-18T05:56:00;27.87;;;9.07;;
22205;SDS011;11272;50.104;8.754;2022-12-18T05:58:29;33.33;;;11.43;;
22205;SDS011;11272;50.104;8.754;2022-12-18T06:00:56;28.50;;;9.23;;
22205;SDS011;11272;50.104;8.754;2022-12-18T06:03:22;25.97;;;8.97;;
22205;SDS011;11272;50.104;8.754;2022-12-18T06:05:48;26.73;;;9.07;;
22205;SDS011;11272;50.104;8.754;2022-12-18T06:08:14;29.43;;;10.30;;
22205;SDS011;11272;50.104;8.754;2022-12-18T06:10:40;23.57;;;8.57;;
22205;SDS011;11272;50.104;8.754;2022-12-18T06:13:06;22.40;;;8.70;;
22205;SDS011;11272;50.104;8.754;2022-12-18T06:15:32;29.47;;;9.53;;
22205;SDS011;11272;50.104;8.754;2022-12-18T06:18:01;22.10;;;9.23;;
22205;SDS011;11272;50.104;8.754;2022-12-18T06:20:26;21.53;;;8.27;;
22205;SDS011;11272;50.104;8.754;2022-12-18T06:22:52;25.17;;;8.43;;
22205;SDS011;11272;50.104;8.754;2022-12-18T06:25:17;27.87;;;9.07;;
22205;SDS011;11272;50.104;8.754;2022-12-18T06:27:43;23.00;;;9.03;;
22205;SDS011;11272;50.104;8.754;2022-12-18T06:30:09;27.33;;;8.83;;
22205;SDS011;11272;50.104;8.754;2022-12-18T06:32:35;30.00;;;9.20;;
22205;SDS011;11272;50.104;8.754;2022-12-18T06:35:01;27.43;;;10.10;;
22205;SDS011;11272;50.104;8.754;2022-12-18T06:37:27;26.97;;;10.60;;
22205;SDS011;11272;50.104;8.754;2022-12-18T06:39:53;18.13;;;7.63;;
22205;SDS011;11272;50.104;8.754;2022-12-18T06:42:22;25.60;;;8.37;;
22205;SDS011;11272;50.104;8.754;2022-12-18T06:44:49;24.23;;;8.50;;
22205;SDS011;11272;50.104;8.754;2022-12-18T06:47:15;27.13;;;8.90;;
22205;SDS011;11272;50.104;8.754;2022-12-18T06:49:41;29.27;;;10.27;;
22205;SDS011;11272;50.104;8.754;2022-12-18T06:52:06;24.70;;;9.00;;
22205;SDS011;11272;50.104;8.754;2022-12-18T06:54:32;26.43;;;8.37;;
22205;SDS011;11272;50.104;8.754;2022-12-18T06:56:57;29.77;;;9.40;;
22205;SDS011;11272;50.104;8.754;2022-12-18T06:59:23;29.73;;;8.57;;
22205;SDS011;11272;50.104;8.754;2022-12-18T07:01:49;26.53;;;9.50;;
22205;SDS011;11272;50.104;8.754;2022-12-18T07:04:14;24.53;;;8.97;;
22205;SDS011;11272;50.104;8.754;2022-12-18T07:06:40;27.27;;;8.63;;
22205;SDS011;11272;50.104;8.754;2022-12-18T07:09:06;26.63;;;9.77;;
22205;SDS011;11272;50.104;8.754;2022-12-18T07:11:34;26.17;;;8.97;;
22205;SDS011;11272;50.104;8.754;2022-12-18T07:14:00;34.37;;;11.23;;
22205;SDS011;11272;50.104;8.754;2022-12-18T07:16:26;23.00;;;9.13;;
22205;SDS011;11272;50.104;8.754;2022-12-18T07:18:54;29.20;;;11.20;;
22205;SDS011;11272;50.104;8.754;2022-12-18T07:21:20;28.03;;;11.07;;
22205;SDS011;11272;50.104;8.754;2022-12-18T07:23:46;21.60;;;8.37;;
22205;SDS011;11272;50.104;8.754;2022-12-18T07:26:13;26.70;;;9.47;;
22205;SDS011;11272;50.104;8.754;2022-12-18T07:28:40;29.50;;;9.00;;
22205;SDS011;11272;50.104;8.754;2022-12-18T07:31:10;27.87;;;8.83;;
22205;SDS011;11272;50.104;8.754;2022-12-18T07:33:39;27.27;;;10.73;;
22205;SDS011;11272;50.104;8.754;2022-12-18T07:36:06;26.93;;;9.87;;
22205;SDS011;11272;50.104;8.754;2022-12-18T07:38:33;27.43;;;9.00;;
22205;SDS011;11272;50.104;8.754;2022-12-18T07:41:04;27.53;;;10.23;;
22205;SDS011;11272;50.104;8.754;2022-12-18T07:43:32;23.13;;;9.10;;
22205;SDS011;11272;50.104;8.754;2022-12-18T07:45:58;29.27;;;9.43;;
22205;SDS011;11272;50.104;8.754;2022-12-18T07:48:24;28.43;;;10.53;;
22205;SDS011;11272;50.104;8.754;2022-12-18T07:50:49;24.67;;;10.43;;
22205;SDS011;11272;50.104;8.754;2022-12-18T07:53:15;33.93;;;9.67;;
22205;SDS011;11272;50.104;8.754;2022-12-18T07:55:41;30.87;;;10.00;;
22205;SDS011;11272;50.104;8.754;2022-12-18T07:58:07;29.60;;;10.20;;
22205;SDS011;11272;50.104;8.754;2022-12-18T08:00:33;28.17;;;10.73;;
22205;SDS011;11272;50.104;8.754;2022-12-18T08:02:59;25.43;;;9.40;;
22205;SDS011;11272;50.104;8.754;2022-12-18T08:05:26;30.60;;;11.00;;
22205;SDS011;11272;50.104;8.754;2022-12-18T08:07:52;30.33;;;10.83;;
22205;SDS011;11272;50.104;8.754;2022-12-18T08:10:18;33.70;;;11.97;;
22205;SDS011;11272;50.104;8.754;2022-12-18T08:12:45;30.13;;;10.40;;
22205;SDS011;11272;50.104;8.754;2022-12-18T08:15:10;29.53;;;10.90;;
22205;SDS011;11272;50.104;8.754;2022-12-18T08:17:36;21.67;;;8.77;;
22205;SDS011;11272;50.104;8.754;2022-12-18T08:20:02;30.97;;;10.80;;
22205;SDS011;11272;50.104;8.754;2022-12-18T08:22:28;28.03;;;9.70;;
22205;SDS011;11272;50.104;8.754;2022-12-18T08:24:54;27.37;;;9.80;;
22205;SDS011;11272;50.104;8.754;2022-12-18T08:27:20;28.30;;;10.63;;
22205;SDS011;11272;50.104;8.754;2022-12-18T08:29:46;31.47;;;10.87;;
22205;SDS011;11272;50.104;8.754;2022-12-18T08:32:11;32.93;;;12.50;;
22205;SDS011;11272;50.104;8.754;2022-12-18T08:34:37;34.53;;;11.40;;
22205;SDS011;11272;50.104;8.754;2022-12-18T08:37:03;33.93;;;11.73;;
22205;SDS011;11272;50.104;8.754;2022-12-18T08:39:28;30.17;;;10.67;;
22205;SDS011;11272;50.104;8.754;2022-12-18T08:41:54;30.03;;;13.00;;
22205;SDS011;11272;50.104;8.754;2022-12-18T08:44:39;37.03;;;11.73;;
22205;SDS011;11272;50.104;8.754;2022-12-18T08:47:08;32.27;;;12.63;;
22205;SDS011;11272;50.104;8.754;2022-12-18T08:49:34;39.93;;;13.27;;
22205;SDS011;11272;50.104;8.754;2022-12-18T08:52:00;51.77;;;16.43;;
22205;SDS011;11272;50.104;8.754;2022-12-18T08:54:27;55.73;;;18.13;;
22205;SDS011;11272;50.104;8.754;2022-12-18T08:56:53;44.60;;;17.17;;
22205;SDS011;11272;50.104;8.754;2022-12-18T08:59:19;42.13;;;14.13;;
22205;SDS011;11272;50.104;8.754;2022-12-18T09:01:45;38.63;;;14.03;;
22205;SDS011;11272;50.104;8.754;2022-12-18T09:04:12;35.87;;;13.93;;
22205;SDS011;11272;50.104;8.754;2022-12-18T09:06:39;35.37;;;12.50;;
22205;SDS011;11272;50.104;8.754;2022-12-18T09:09:05;31.07;;;12.77;;
22205;SDS011;11272;50.104;8.754;2022-12-18T09:11:32;33.40;;;14.73;;
22205;SDS011;11272;50.104;8.754;2022-12-18T09:13:59;29.53;;;12.87;;
22205;SDS011;11272;50.104;8.754;2022-12-18T09:16:26;35.57;;;15.53;;
22205;SDS011;11272;50.104;8.754;2022-12-18T09:18:57;33.13;;;14.07;;
22205;SDS011;11272;50.104;8.754;2022-12-18T09:21:32;31.40;;;14.23;;
22205;SDS011;11272;50.104;8.754;2022-12-18T09:23:59;37.67;;;15.50;;
22205;SDS011;11272;50.104;8.754;2022-12-18T09:26:25;32.70;;;15.33;;
22205;SDS011;11272;50.104;8.754;2022-12-18T09:28:52;37.43;;;15.63;;
22205;SDS011;11272;50.104;8.754;2022-12-18T09:31:23;35.20;;;16.53;;
22205;SDS011;11272;50.104;8.754;2022-12-18T09:33:50;39.33;;;17.10;;
22205;SDS011;11272;50.104;8.754;2022-12-18T09:36:16;35.63;;;16.00;;
22205;SDS011;11272;50.104;8.754;2022-12-18T09:38:43;38.10;;;17.50;;
22205;SDS011;11272;50.104;8.754;2022-12-18T09:44:44;32.90;;;15.90;;
22205;SDS011;11272;50.104;8.754;2022-12-18T09:47:10;32.87;;;16.47;;
22205;SDS011;11272;50.104;8.754;2022-12-18T09:49:44;37.77;;;16.87;;
22205;SDS011;11272;50.104;8.754;2022-12-18T09:52:14;40.27;;;18.53;;
22205;SDS011;11272;50.104;8.754;2022-12-18T09:54:46;35.73;;;17.77;;
22205;SDS011;11272;50.104;8.754;2022-12-18T09:57:18;39.33;;;17.80;;
22205;SDS011;11272;50.104;8.754;2022-12-18T09:59:53;34.67;;;14.90;;
22205;SDS011;11272;50.104;8.754;2022-12-18T10:02:26;39.73;;;17.13;;
22205;SDS011;11272;50.104;8.754;2022-12-18T10:05:07;37.53;;;16.80;;
22205;SDS011;11272;50.104;8.754;2022-12-18T10:10:43;39.33;;;18.03;;
22205;SDS011;11272;50.104;8.754;2022-12-18T10:16:24;40.53;;;18.30;;
22205;SDS011;11272;50.104;8.754;2022-12-18T10:19:17;35.37;;;15.03;;
22205;SDS011;11272;50.104;8.754;2022-12-18T10:24:33;13.40;;;6.77;;
22205;SDS011;11272;50.104;8.754;2022-12-18T10:27:12;44.90;;;18.10;;
22205;SDS011;11272;50.104;8.754;2022-12-18T10:29:41;37.00;;;17.87;;
22205;SDS011;11272;50.104;8.754;2022-12-18T10:32:17;44.17;;;19.10;;
22205;SDS011;11272;50.104;8.754;2022-12-18T10:34:48;39.87;;;18.37;;
22205;SDS011;11272;50.104;8.754;2022-12-18T10:37:19;39.60;;;15.97;;
22205;SDS011;11272;50.104;8.754;2022-12-18T10:40:06;22.33;;;11.13;;
22205;SDS011;11272;50.104;8.754;2022-12-18T10:42:37;38.70;;;15.57;;
22205;SDS011;11272;50.104;8.754;2022-12-18T10:45:05;37.40;;;12.60;;
22205;SDS011;11272;50.104;8.754;2022-12-18T10:47:43;44.50;;;16.57;;
22205;SDS011;11272;50.104;8.754;2022-12-18T10:50:23;36.70;;;15.10;;
22205;SDS011;11272;50.104;8.754;2022-12-18T10:52:54;27.63;;;12.43;;
22205;SDS011;11272;50.104;8.754;2022-12-18T10:55:33;38.63;;;15.53;;
22205;SDS011;11272;50.104;8.754;2022-12-18T10:58:22;40.00;;;17.70;;
22205;SDS011;11272;50.104;8.754;2022-12-18T11:01:03;41.07;;;17.17;;
22205;SDS011;11272;50.104;8.754;2022-12-18T11:06:09;42.97;;;16.80;;
22205;SDS011;11272;50.104;8.754;2022-12-18T11:08:40;31.07;;;11.50;;
22205;SDS011;11272;50.104;8.754;2022-12-18T11:11:40;42.70;;;17.57;;
22205;SDS011;11272;50.104;8.754;2022-12-18T11:16:36;37.70;;;14.07;;
22205;SDS011;11272;50.104;8.754;2022-12-18T11:19:11;40.57;;;16.23;;
22205;SDS011;11272;50.104;8.754;2022-12-18T11:21:45;43.00;;;15.63;;
22205;SDS011;11272;50.104;8.754;2022-12-18T11:24:19;38.80;;;12.80;;
22205;SDS011;11272;50.104;8.754;2022-12-18T11:26:50;48.23;;;16.13;;
22205;SDS011;11272;50.104;8.754;2022-12-18T11:29:22;43.83;;;16.80;;
22205;SDS011;11272;50.104;8.754;2022-12-18T11:31:55;40.07;;;16.10;;
22205;SDS011;11272;50.104;8.754;2022-12-18T11:34:41;40.43;;;14.83;;
22205;SDS011;11272;50.104;8.754;2022-12-18T11:37:11;42.17;;;15.60;;
22205;SDS011;11272;50.104;8.754;2022-12-18T11:39:40;45.23;;;16.17;;
22205;SDS011;11272;50.104;8.754;2022-12-18T11:42:12;34.50;;;13.70;;
22205;SDS011;11272;50.104;8.754;2022-12-18T11:45:28;28.60;;;10.23;;
22205;SDS011;11272;50.104;8.754;2022-12-18T11:47:42;42.47;;;16.43;;
22205;SDS011;11272;50.104;8.754;2022-12-18T11:50:20;45.23;;;14.90;;
22205;SDS011;11272;50.104;8.754;2022-12-18T11:52:50;45.90;;;17.03;;
22205;SDS011;11272;50.104;8.754;2022-12-18T11:55:28;38.00;;;15.53;;
22205;SDS011;11272;50.104;8.754;2022-12-18T12:03:59;39.77;;;14.90;;
22205;SDS011;11272;50.104;8.754;2022-12-18T12:09:42;38.23;;;15.27;;
22205;SDS011;11272;50.104;8.754;2022-12-18T12:18:23;38.07;;;15.37;;
22205;SDS011;11272;50.104;8.754;2022-12-18T12:28:47;28.63;;;10.63;;
22205;SDS011;11272;50.104;8.754;2022-12-18T12:31:30;21.07;;;8.40;;
22205;SDS011;11272;50.104;8.754;2022-12-18T12:39:37;36.93;;;14.20;;
22205;SDS011;11272;50.104;8.754;2022-12-18T12:42:11;28.40;;;11.47;;
22205;SDS011;11272;50.104;8.754;2022-12-18T12:45:04;37.63;;;14.27;;
22205;SDS011;11272;50.104;8.754;2022-12-18T12:47:40;40.30;;;14.77;;
22205;SDS011;11272;50.104;8.754;2022-12-18T12:50:15;41.03;;;15.07;;
22205;SDS011;11272;50.104;8.754;2022-12-18T12:52:46;42.07;;;15.13;;
22205;SDS011;11272;50.104;8.754;2022-12-18T12:55:19;37.33;;;13.30;;
22205;SDS011;11272;50.104;8.754;2022-12-18T12:57:54;9.37;;;3.33;;
22205;SDS011;11272;50.104;8.754;2022-12-18T13:01:01;24.40;;;9.40;;
22205;SDS011;11272;50.104;8.754;2022-12-18T13:10:14;27.37;;;10.03;;
22205;SDS011;11272;50.104;8.754;2022-12-18T13:12:56;43.30;;;13.93;;
22205;SDS011;11272;50.104;8.754;2022-12-18T13:18:03;24.93;;;9.00;;
22205;SDS011;11272;50.104;8.754;2022-12-18T13:25:52;39.40;;;14.73;;
22205;SDS011;11272;50.104;8.754;2022-12-18T13:31:14;46.30;;;13.80;;
22205;SDS011;11272;50.104;8.754;2022-12-18T13:36:50;41.20;;;14.43;;
22205;SDS011;11272;50.104;8.754;2022-12-18T13:39:22;38.37;;;14.33;;
22205;SDS011;11272;50.104;8.754;2022-12-18T13:44:33;45.70;;;18.67;;
22205;SDS011;11272;50.104;8.754;2022-12-18T13:47:02;21.47;;;7.27;;
22205;SDS011;11272;50.104;8.754;2022-12-18T13:49:39;42.77;;;15.67;;
22205;SDS011;11272;50.104;8.754;2022-12-18T13:52:18;41.80;;;16.37;;
22205;SDS011;11272;50.104;8.754;2022-12-18T13:54:51;47.80;;;16.03;;
22205;SDS011;11272;50.104;8.754;2022-12-18T13:57:28;32.33;;;11.53;;
22205;SDS011;11272;50.104;8.754;2022-12-18T13:59:56;46.27;;;14.10;;
22205;SDS011;11272;50.104;8.754;2022-12-18T14:02:25;37.40;;;13.73;;
22205;SDS011;11272;50.104;8.754;2022-12-18T14:04:58;40.07;;;14.63;;
22205;SDS011;11272;50.104;8.754;2022-12-18T14:07:24;39.07;;;13.67;;
22205;SDS011;11272;50.104;8.754;2022-12-18T14:09:57;39.57;;;13.77;;
22205;SDS011;11272;50.104;8.754;2022-12-18T14:12:27;38.93;;;12.83;;
22205;SDS011;11272;50.104;8.754;2022-12-18T14:20:24;39.70;;;13.70;;
22205;SDS011;11272;50.104;8.754;2022-12-18T14:22:51;32.77;;;12.93;;
22205;SDS011;11272;50.104;8.754;2022-12-18T14:25:21;30.47;;;12.70;;
22205;SDS011;11272;50.104;8.754;2022-12-18T14:28:14;42.57;;;14.23;;
22205;SDS011;11272;50.104;8.754;2022-12-18T14:30:41;41.30;;;14.33;;
22205;SDS011;11272;50.104;8.754;2022-12-18T14:36:03;34.63;;;14.07;;
22205;SDS011;11272;50.104;8.754;2022-12-18T14:38:37;38.67;;;14.33;;
22205;SDS011;11272;50.104;8.754;2022-12-18T14:41:05;34.33;;;12.73;;
22205;SDS011;11272;50.104;8.754;2022-12-18T14:43:33;35.77;;;14.90;;
22205;SDS011;11272;50.104;8.754;2022-12-18T14:46:01;38.07;;;14.00;;
22205;SDS011;11272;50.104;8.754;2022-12-18T14:51:14;45.83;;;14.87;;
22205;SDS011;11272;50.104;8.754;2022-12-18T14:53:56;45.70;;;14.30;;
22205;SDS011;11272;50.104;8.754;2022-12-18T14:59:26;40.17;;;14.90;;
22205;SDS011;11272;50.104;8.754;2022-12-18T15:02:00;39.20;;;14.23;;
22205;SDS011;11272;50.104;8.754;2022-12-18T15:04:39;40.83;;;14.57;;
22205;SDS011;11272;50.104;8.754;2022-12-18T15:09:39;41.80;;;15.10;;
22205;SDS011;11272;50.104;8.754;2022-12-18T15:12:19;46.53;;;16.83;;
22205;SDS011;11272;50.104;8.754;2022-12-18T15:14:51;39.87;;;15.47;;
22205;SDS011;11272;50.104;8.754;2022-12-18T15:17:21;32.30;;;12.30;;
22205;SDS011;11272;50.104;8.754;2022-12-18T15:19:49;40.67;;;15.10;;
22205;SDS011;11272;50.104;8.754;2022-12-18T15:22:20;40.50;;;15.03;;
22205;SDS011;11272;50.104;8.754;2022-12-18T15:24:59;41.13;;;15.03;;
22205;SDS011;11272;50.104;8.754;2022-12-18T15:30:15;42.43;;;15.10;;
22205;SDS011;11272;50.104;8.754;2022-12-18T15:32:44;44.97;;;16.73;;
22205;SDS011;11272;50.104;8.754;2022-12-18T15:37:36;45.30;;;15.27;;
22205;SDS011;11272;50.104;8.754;2022-12-18T15:40:04;46.37;;;16.27;;
22205;SDS011;11272;50.104;8.754;2022-12-18T15:42:30;50.67;;;16.30;;
22205;SDS011;11272;50.104;8.754;2022-12-18T15:45:15;37.70;;;13.93;;
22205;SDS011;11272;50.104;8.754;2022-12-18T15:47:41;40.07;;;14.50;;
22205;SDS011;11272;50.104;8.754;2022-12-18T15:50:07;40.43;;;13.67;;
22205;SDS011;11272;50.104;8.754;2022-12-18T15:52:41;53.97;;;16.20;;
22205;SDS011;11272;50.104;8.754;2022-12-18T15:55:11;40.97;;;15.40;;
22205;SDS011;11272;50.104;8.754;2022-12-18T15:57:57;47.47;;;16.40;;
22205;SDS011;11272;50.104;8.754;2022-12-18T16:00:23;49.10;;;17.77;;
22205;SDS011;11272;50.104;8.754;2022-12-18T16:02:49;47.80;;;16.73;;
22205;SDS011;11272;50.104;8.754;2022-12-18T16:05:15;46.07;;;16.73;;
22205;SDS011;11272;50.104;8.754;2022-12-18T16:07:43;47.07;;;16.27;;
22205;SDS011;11272;50.104;8.754;2022-12-18T16:10:10;42.63;;;16.80;;
22205;SDS011;11272;50.104;8.754;2022-12-18T16:12:36;48.87;;;17.00;;
22205;SDS011;11272;50.104;8.754;2022-12-18T16:15:03;40.17;;;16.13;;
22205;SDS011;11272;50.104;8.754;2022-12-18T16:17:30;53.70;;;17.63;;
22205;SDS011;11272;50.104;8.754;2022-12-18T16:19:57;51.70;;;18.23;;
22205;SDS011;11272;50.104;8.754;2022-12-18T16:22:26;50.50;;;17.40;;
22205;SDS011;11272;50.104;8.754;2022-12-18T16:24:53;49.73;;;17.53;;
22205;SDS011;11272;50.104;8.754;2022-12-18T16:27:20;49.13;;;18.70;;
22205;SDS011;11272;50.104;8.754;2022-12-18T16:29:49;51.17;;;16.93;;
22205;SDS011;11272;50.104;8.754;2022-12-18T16:32:17;48.80;;;16.87;;